Latest Weather Observations for Woolshed

IDQ60801

Issued at 11:02 am EST Thursday 24 August 2017 (issued every 30 minutes, with the page automatically refreshed every 10 minutes)

About weather observations | Map of weather stations | Latest weather observations for QLD | Other Formats
Station Details ID: 033307 Name: WOOLSHED Lat: -19.42 Lon: 146.54 Height: 556.04 m
Data from the previous 72 hours. | See also: Recent months at Woolshed
Date/Time
EST
Temp
°C
App
Temp
°C
Dew
Point
°C
Rel
Hum
%
Delta-T
°C
Wind Press
QNH
hPa
Press
MSL
hPa
Rain since
9am
mm
Dir  Spd
km/h
Gust
km/h
Spd
kts
Gust
kts
24/11:00am 22.1 21.8 14.5 62 4.6 NNE 9 19 5 10 1019.3 1017.5 0.0
24/10:30am 21.5 21.0 13.9 62 4.5 NE 9 15 5 8 1019.7 1017.9 0.0
24/10:00am 21.1 20.8 14.3 65 4.1 NNE 9 17 5 9 1019.9 1018.1 0.0
24/09:30am 20.3 20.0 14.4 69 3.5 NE 9 17 5 9 1020.1 1018.2 0.0
24/09:00am 19.4 19.4 15.1 76 2.6 NNE 9 17 5 9 1020.1 1018.2 0.2
24/08:30am 19.0 19.4 15.3 79 2.2 NE 7 15 4 8 1019.9 1018.1 0.2
24/08:00am 18.4 18.9 15.5 83 1.7 NE 7 17 4 9 1019.7 1017.9 0.2
24/07:30am 17.5 18.1 15.8 90 1.0 NE 7 13 4 7 1019.3 1017.5 0.0
24/07:00am 15.9 16.9 15.3 96 0.4 NE 4 6 2 3 1019.4 1017.6 0.0
24/06:30am 15.7 16.6 15.1 96 0.4 NE 4 9 2 5 1019.3 1017.5 0.0
24/06:00am 15.8 16.4 15.2 96 0.4 NNE 6 7 3 4 1018.8 1017.0 0.0
24/05:30am 15.7 16.2 14.9 95 0.5 NE 6 11 3 6 1018.6 1016.7 0.0
24/05:00am 16.1 16.5 15.3 95 0.5 NE 7 13 4 7 1018.5 1016.6 0.0
24/04:30am 16.2 16.6 15.4 95 0.5 NE 7 15 4 8 1018.4 1016.5 0.0
24/04:00am 16.6 17.2 15.8 95 0.5 NE 7 15 4 8 1018.4 1016.5 0.0
24/03:30am 16.6 16.9 16.1 97 0.3 NE 9 17 5 9 1018.5 1016.6 0.0
24/03:00am 16.4 17.0 15.9 97 0.3 NE 7 15 4 8 1018.6 1016.7 0.0
24/02:30am 16.5 17.1 15.9 96 0.4 NE 7 15 4 8 1018.7 1016.9 0.0
24/02:00am 16.4 17.0 15.9 97 0.3 NE 7 15 4 8 1018.8 1017.0 0.0
24/01:30am 16.1 16.7 15.3 95 0.5 NE 6 11 3 6 1019.2 1017.4 0.0
24/01:00am 16.3 16.9 15.3 94 0.6 NE 6 11 3 6 1019.7 1017.9 0.0
24/12:30am 16.3 16.8 15.5 95 0.5 NE 7 11 4 6 1019.9 1018.1 0.0
24/12:00am 16.2 16.9 15.6 96 0.4 NE 6 11 3 6 1020.1 1018.2 0.0
 
Date/Time
EST
Temp
°C
App
Temp
°C
Dew
Point
°C
Rel
Hum
%
Delta-T
°C
Wind Press
QNH
hPa
Press
MSL
hPa
Rain since
9am
mm
Dir  Spd
km/h
Gust
km/h
Spd
kts
Gust
kts
23/11:30pm 16.1 16.7 15.3 95 0.5 NE 6 9 3 5 1020.3 1018.5 0.0
23/11:00pm 16.2 16.8 15.4 95 0.5 NE 6 11 3 6 1020.2 1018.3 0.0
23/10:30pm 16.5 17.1 15.7 95 0.5 NE 7 13 4 7 1019.9 1018.1 0.0
23/10:00pm 16.7 17.3 15.9 95 0.5 NE 7 13 4 7 1019.9 1018.1 0.0
23/09:30pm 16.5 17.0 15.5 94 0.6 NE 7 15 4 8 1019.9 1018.1 0.0
23/09:00pm 16.7 17.3 15.7 94 0.6 NE 7 13 4 7 1020.3 1018.5 0.0
23/08:30pm 17.0 17.5 15.5 91 0.9 NE 7 13 4 7 1020.2 1018.3 0.0
23/08:00pm 16.7 17.0 14.9 89 1.1 NE 7 13 4 7 1020.1 1018.2 0.0
23/07:30pm 17.2 17.5 15.0 87 1.3 NNE 7 13 4 7 1019.7 1017.9 0.0
23/07:00pm 17.4 17.6 14.7 84 1.6 NNE 7 15 4 8 1019.5 1017.7 0.0
23/06:30pm 17.8 17.5 14.3 80 2.1 NNE 9 19 5 10 1019.4 1017.6 0.0
23/06:00pm 18.5 18.4 14.0 75 2.6 NNE 7 13 4 7 1019.3 1017.5 0.0
23/05:30pm 19.6 19.2 14.0 70 3.3 NNE 9 19 5 10 1019.1 1017.3 0.0
23/05:00pm 20.5 20.0 13.9 66 3.9 NNE 9 17 5 9 1018.7 1016.9 0.0
23/04:30pm 21.7 21.3 14.1 62 4.5 NE 9 19 5 10 1018.7 1016.9 0.0
23/04:00pm 22.0 21.5 13.9 60 4.8 NNE 9 17 5 9 1018.7 1016.9 0.0
23/03:30pm 21.7 20.9 13.9 61 4.6 NE 11 19 6 10 1018.6 1016.7 0.0
23/03:00pm 24.1 23.7 15.1 57 5.5 N 11 19 6 10 1018.6 1016.7 0.0
23/02:30pm 23.4 22.1 13.6 54 5.8 NNE 13 24 7 13 1018.7 1016.9 0.0
23/02:00pm 23.5 22.7 13.9 55 5.7 NNE 11 19 6 10 1019.1 1017.3 0.0
23/01:30pm 23.2 22.1 14.2 57 5.4 NE 13 22 7 12 1019.4 1017.6 0.0
23/01:00pm 24.0 23.5 15.0 57 5.5 NNE 11 20 6 11 1019.8 1018.0 0.0
23/12:30pm 22.2 21.3 13.8 59 5.0 NNE 11 24 6 13 1020.4 1018.6 0.0
23/12:00pm 21.9 21.6 14.3 62 4.5 NE 9 19 5 10 1020.6 1018.8 0.0
23/11:30am 22.3 22.1 15.6 66 4.1 NNE 11 20 6 11 1021.2 1019.4 0.0
23/11:00am 22.7 22.4 15.5 64 4.4 NE 11 20 6 11 1021.4 1019.6 0.0
23/10:30am 21.4 21.2 14.8 66 4.0 NE 9 17 5 9 1021.7 1019.9 0.0
23/10:00am 20.9 20.3 14.5 67 3.8 NNE 11 19 6 10 1022.0 1020.2 0.0
23/09:30am 20.4 20.6 15.8 75 2.8 NNE 9 17 5 9 1022.0 1020.2 0.0
23/09:00am 19.3 19.4 15.6 79 2.2 NNE 9 22 5 12 1021.7 1019.9 0.0
23/08:30am 19.1 19.1 16.3 84 1.7 NE 11 22 6 12 1021.3 1019.5 0.0
23/08:00am 18.8 19.2 16.4 86 1.5 NE 9 17 5 9 1021.0 1019.2 0.0
23/07:30am 17.9 18.9 16.8 93 0.7 NE 7 15 4 8 1020.8 1019.0 0.0
23/07:00am 17.3 18.3 16.8 97 0.3 NE 7 11 4 6 1020.4 1018.6 0.0
23/06:30am 17.0 18.1 16.5 97 0.3 ENE 6 9 3 5 1020.4 1018.6 0.0
23/06:00am 17.2 18.1 16.7 97 0.3 NE 7 13 4 7 1020.1 1018.2 0.0
23/05:30am 17.1 18.2 16.6 97 0.3 NE 6 13 3 7 1019.8 1018.0 0.0
23/05:00am 16.9 17.9 16.4 97 0.3 NE 6 13 3 7 1019.6 1017.8 0.0
23/04:30am 16.8 17.7 16.6 99 0.1 NE 7 15 4 8 1019.6 1017.8 0.0
23/04:00am 16.8 17.3 16.5 98 0.2 NE 9 15 5 8 1019.6 1017.8 0.0
23/03:30am 17.0 18.0 16.8 99 0.1 NE 7 15 4 8 1019.6 1017.8 0.0
23/03:00am 17.1 17.7 16.9 99 0.1 NE 9 15 5 8 1019.6 1017.8 0.0
23/02:30am 17.0 17.6 16.8 99 0.1 NNE 9 15 5 8 1019.6 1017.8 0.0
23/02:00am 16.9 17.8 16.6 98 0.2 NE 7 13 4 7 1019.9 1018.1 0.0
23/01:30am 16.6 17.0 16.3 98 0.2 NE 9 19 5 10 1020.2 1018.3 0.0
23/01:00am 16.7 17.6 16.5 99 0.1 NE 7 15 4 8 1020.3 1018.5 0.0
23/12:30am 16.8 17.3 16.6 99 0.1 NE 9 17 5 9 1020.5 1018.7 0.0
23/12:00am 17.0 17.6 16.8 99 0.1 NE 9 17 5 9 1020.7 1018.9 0.0
 
Date/Time
EST
Temp
°C
App
Temp
°C
Dew
Point
°C
Rel
Hum
%
Delta-T
°C
Wind Press
QNH
hPa
Press
MSL
hPa
Rain since
9am
mm
Dir  Spd
km/h
Gust
km/h
Spd
kts
Gust
kts
22/11:30pm 17.0 17.3 17.0 100 0.0 NE 11 19 6 10 1020.8 1019.0 0.0
22/11:00pm 17.3 18.1 17.3 100 0.0 NE 9 19 5 10 1021.0 1019.2 0.0
22/10:30pm 17.3 18.1 17.3 100 0.0 NNE 9 19 5 10 1021.0 1019.2 0.0
22/10:00pm 17.3 18.1 17.3 100 0.0 NNE 9 17 5 9 1021.0 1019.2 0.0
22/09:30pm 17.3 18.0 17.1 99 0.1 NNE 9 17 5 9 1020.8 1019.0 0.0
22/09:00pm 17.2 17.5 16.9 98 0.2 NNE 11 20 6 11 1020.7 1018.9 0.0
22/08:30pm 17.3 17.5 16.8 97 0.3 NNE 11 17 6 9 1020.4 1018.6 0.0
22/08:00pm 17.4 17.9 16.6 95 0.5 NNE 9 26 5 14 1020.1 1018.2 0.0
22/07:30pm 17.1 17.0 16.0 93 0.7 NNE 11 22 6 12 1019.5 1017.7 0.0
22/07:00pm 16.9 17.3 15.2 90 1.0 NNE 7 15 4 8 1019.4 1017.6 0.0
22/06:30pm 17.2 17.3 14.5 84 1.6 NNE 7 17 4 9 1019.0 1017.2 0.0
22/06:00pm 18.0 17.6 14.1 78 2.3 NNE 9 17 5 9 1018.8 1017.0 0.0
22/05:30pm 19.2 18.8 14.0 72 3.1 NNE 9 17 5 9 1018.6 1016.7 0.0
22/05:00pm 20.3 19.5 14.0 67 3.7 NNE 11 19 6 10 1018.3 1016.4 0.0
22/04:30pm 21.7 20.9 13.9 61 4.6 NNE 11 19 6 10 1018.0 1016.2 0.0
22/04:00pm 23.1 22.6 13.8 55 5.6 NE 9 19 5 10 1017.9 1016.1 0.0
22/03:30pm 23.9 23.3 13.4 51 6.3 NNE 9 17 5 9 1017.8 1016.0 0.0
22/03:00pm 24.6 24.4 13.5 50 6.6 NE 7 15 4 8 1017.6 1015.8 0.0
22/02:30pm 24.3 23.6 13.2 50 6.6 NNE 9 15 5 8 1017.8 1016.0 0.0
22/02:00pm 24.4 23.4 13.3 50 6.6 NE 11 19 6 10 1018.0 1016.2 0.0
22/01:30pm 24.4 24.0 13.0 49 6.8 NNE 7 15 4 8 1018.5 1016.6 0.0
22/01:00pm 24.0 23.6 12.9 50 6.6 NE 7 11 4 6 1018.9 1017.1 0.0
22/12:30pm 24.1 23.9 13.0 50 6.6 N 6 11 3 6 1019.3 1017.5 0.0
22/12:00pm 23.2 22.5 13.1 53 6.0 NE 9 15 5 8 1019.9 1018.1 0.0
22/11:30am 22.9 22.4 13.7 56 5.5 NNE 9 15 5 8 1020.4 1018.6 0.0
22/11:00am 22.4 22.1 14.3 60 4.9 NNE 9 17 5 9 1020.6 1018.8 0.0
22/10:30am 21.5 20.8 14.2 63 4.4 NNE 11 19 6 10 1020.9 1019.1 0.0
22/10:00am 21.0 20.7 14.4 66 3.9 NNE 9 15 5 8 1021.0 1019.2 0.0
22/09:30am 19.9 19.7 14.7 72 3.1 NE 9 19 5 10 1021.0 1019.2 0.0
22/09:00am 19.2 19.2 14.2 73 3.0 NE 7 13 4 7 1020.8 1019.0 0.0
22/08:30am 18.4 18.4 14.3 77 2.4 NE 7 13 4 7 1020.6 1018.8 0.0
22/08:00am 17.7 17.8 14.0 79 2.2 NNE 6 11 3 6 1020.5 1018.7 0.0
22/07:30am 16.3 16.5 14.3 88 1.2 NNE 6 13 3 7 1020.2 1018.3 0.0
22/07:00am 14.9 15.0 13.8 93 0.6 NNE 6 9 3 5 1019.8 1018.0 0.0
22/06:30am 14.3 14.2 13.3 94 0.6 NNE 6 11 3 6 1019.5 1017.7 0.0
22/06:00am 14.4 14.4 13.6 95 0.5 NNE 6 11 3 6 1019.3 1017.5 0.0
22/05:30am 14.5 14.5 13.7 95 0.5 NNE 6 11 3 6 1018.9 1017.1 0.0
22/05:00am 14.5 14.5 13.7 95 0.5 NNE 6 11 3 6 1018.8 1017.0 0.0
22/04:30am 14.4 14.4 13.6 95 0.5 NNE 6 11 3 6 1018.7 1016.9 0.0
22/04:00am 14.5 14.2 13.4 93 0.6 NNE 7 17 4 9 1018.7 1016.9 0.0
22/03:30am 14.4 14.1 13.3 93 0.6 NNE 7 11 4 6 1018.8 1017.0 0.0
22/03:00am 14.3 13.9 13.0 92 0.7 NNE 7 13 4 7 1018.9 1017.1 0.0
22/02:30am 14.4 13.9 12.8 90 0.9 NNE 7 11 4 6 1019.2 1017.4 0.0
22/02:00am 14.7 14.3 13.1 90 0.9 NE 7 15 4 8 1019.5 1017.7 0.0
22/01:30am 14.6 13.8 12.8 89 1.0 NE 9 17 5 9 1019.6 1017.8 0.0
22/01:00am 14.5 14.0 12.5 88 1.1 NE 7 17 4 9 1020.1 1018.2 0.0
22/12:30am 14.6 14.1 12.6 88 1.1 NNE 7 13 4 7 1020.2 1018.3 0.0
22/12:00am 14.5 13.9 12.4 87 1.2 NNE 7 11 4 6 1020.4 1018.6 0.0
 
Date/Time
EST
Temp
°C
App
Temp
°C
Dew
Point
°C
Rel
Hum
%
Delta-T
°C
Wind Press
QNH
hPa
Press
MSL
hPa
Rain since
9am
mm
Dir  Spd
km/h
Gust
km/h
Spd
kts
Gust
kts
21/11:30pm 14.6 14.0 12.3 86 1.3 NNE 7 17 4 9 1020.4 1018.6 0.0
21/11:00pm 14.6 13.9 12.1 85 1.4 NNE 7 15 4 8 1020.5 1018.7 0.0
21/10:30pm 14.7 13.6 12.0 84 1.5 NE 9 17 5 9 1020.6 1018.8 0.0
21/10:00pm 14.7 13.9 11.8 83 1.6 NE 7 13 4 7 1020.8 1019.0 0.0
21/09:30pm 14.6 13.7 11.4 81 1.8 NE 7 13 4 7 1020.5 1018.7 0.0
21/09:00pm 14.8 13.9 11.4 80 1.9 NE 7 13 4 7 1020.4 1018.6 0.0
21/08:30pm 14.5 13.6 11.3 81 1.8 NNE 7 13 4 7 1020.3 1018.5 0.0
21/08:00pm 14.2 13.3 10.6 79 1.9 NNE 6 9 3 5 1020.2 1018.3 0.0
21/07:30pm 14.3 13.4 10.5 78 2.0 NE 6 9 3 5 1019.6 1017.8 0.0
21/07:00pm 14.6 13.9 10.0 74 2.5 NE 4 7 2 4 1019.4 1017.6 0.0
21/06:30pm 15.2 14.5 10.0 71 2.8 NNE 4 7 2 4 1019.1 1017.3 0.0
21/06:00pm 16.1 15.0 10.0 67 3.3 NNE 6 11 3 6 1019.0 1017.2 0.0
21/05:30pm 17.5 15.8 9.7 60 4.2 NNE 9 13 5 7 1018.7 1016.9 0.0
21/05:00pm 18.3 16.6 9.9 58 4.6 NNE 9 17 5 9 1018.5 1016.6 0.0
21/04:30pm 19.4 17.3 9.9 54 5.2 NNE 11 17 6 9 1017.9 1016.1 0.0
21/04:00pm 20.0 18.2 9.6 51 5.7 NNE 9 22 5 12 1017.9 1016.1 0.0
21/03:30pm 20.0 17.7 9.0 49 6.0 N 11 19 6 10 1017.9 1016.1 0.0
21/03:00pm 21.3 19.2 9.9 48 6.3 N 11 19 6 10 1017.9 1016.1 0.0
21/02:30pm 20.8 18.8 8.8 46 6.5 NNE 9 17 5 9 1018.3 1016.4 0.0
21/02:00pm 21.5 19.6 9.1 45 6.8 N 9 19 5 10 1018.7 1016.9 0.0
21/01:30pm 21.3 19.2 8.2 43 7.0 NNE 9 17 5 9 1019.1 1017.3 0.0
21/01:00pm 21.2 18.8 7.1 40 7.4 NNE 9 19 5 10 1019.4 1017.6 0.0
21/12:30pm 20.8 18.6 7.8 43 6.9 NNE 9 17 5 9 1019.8 1018.0 0.0
21/12:00pm 20.4 17.4 6.0 39 7.4 NNE 11 20 6 11 1020.4 1018.6 0.0
21/11:30am 20.0 17.5 6.7 42 6.9 NE 9 22 5 12 1020.9 1019.1 0.0

Other Formats:

Comma delimited format used in spreadsheet applications
http://www.bom.gov.au/fwo/IDQ60801/IDQ60801.95293.axf

JavaScript Object Notation format (JSON) in row-major order
http://www.bom.gov.au/fwo/IDQ60801/IDQ60801.95293.json